Cotulla, Texas
Current Conditions -  °F | °C
As of 11:53 PM on Wednesday 17 Dec 2014 (Local Time) from KCOT Reporting Station
Overcast Overcast  
Wind Chill: 58°   Ceiling: 2200
Heat Index: 58°   Visibility: 10mi
Dew Point: 53°   Wind: 5mph
Humidity: 84%   Direction: 330°NNW
Pressure: 30.07"   Gusts: NA
Location:  28.44°N, 99.24°W
Report Text: KCOT 180553Z AUTO 33004KT 10SM OVC022 14/12 A3007 RMK AO2 SLP179 T01440117 10144 20133 401610122 50000
Loading
Personal Weather Stations






























Interactive Weather Map New forecast layout! Learn more

10-Day Weather Forecast

Advertisements
Track Severe Weather on mobile